Time;durP1;ratioP1;P1;durP2;ratioP2;P2;SDS_P1;SDS_P2;PMS_P1;PMS_P2;Temp;Humidity;BMP_temperature;BMP_pressure;BME280_temperature;BME280_humidity;BME280_pressure;Samples;Min_cycle;Max_cycle;Signal;HPM_P1;HPM_P2
2022/06/16 00:01:47;;;;;;;8.45;6.85;;;;;;;13.98;100.00;95411.88;5063910;28;20047;-74
2022/06/16 00:04:14;;;;;;;7.53;6.43;;;;;;;13.87;100.00;95411.69;5080560;28;20087;-74
2022/06/16 00:06:41;;;;;;;10.15;6.50;;;;;;;13.93;100.00;95408.09;5080952;28;20123;-74
2022/06/16 00:09:09;;;;;;;9.05;6.18;;;;;;;13.65;100.00;95421.25;5063851;28;20076;-74
2022/06/16 00:11:36;;;;;;;12.20;6.80;;;;;;;13.63;100.00;95408.41;5077644;28;20056;-74
2022/06/16 00:14:03;;;;;;;8.90;6.20;;;;;;;13.58;100.00;95419.59;5078967;28;20701;-74
2022/06/16 00:16:30;;;;;;;10.55;6.30;;;;;;;13.51;100.00;95421.53;5079284;28;20040;-74
2022/06/16 00:18:57;;;;;;;10.65;5.88;;;;;;;13.45;100.00;95401.56;5060114;28;20163;-74
2022/06/16 00:21:25;;;;;;;7.80;6.00;;;;;;;13.62;100.00;95416.50;5065019;28;20131;-74
2022/06/16 00:23:52;;;;;;;10.93;6.28;;;;;;;13.53;100.00;95411.63;5061148;28;20111;-74
2022/06/16 00:26:22;;;;;;;7.65;6.55;;;;;;;13.49;100.00;95417.59;5082190;28;20059;-74
2022/06/16 00:28:49;;;;;;;8.02;6.38;;;;;;;13.49;100.00;95428.06;5078878;28;20078;-74
2022/06/16 00:31:19;;;;;;;10.00;6.10;;;;;;;13.42;100.00;95417.72;5084222;28;20110;-74
2022/06/16 00:33:47;;;;;;;9.55;6.85;;;;;;;13.38;100.00;95421.84;5079274;28;20152;-74
2022/06/16 00:36:15;;;;;;;7.57;6.18;;;;;;;13.27;100.00;95409.56;5074172;28;20359;-74
2022/06/16 00:38:42;;;;;;;7.70;6.60;;;;;;;13.35;100.00;95419.69;5080606;28;20173;-74
2022/06/16 00:41:10;;;;;;;9.63;7.07;;;;;;;13.28;100.00;95416.38;5079453;28;20044;-74
2022/06/16 00:43:37;;;;;;;10.27;6.43;;;;;;;13.25;100.00;95401.16;5078948;28;20036;-74
2022/06/16 00:46:13;;;;;;;8.13;6.40;;;;;;;13.34;100.00;95415.47;5082669;28;20051;-75
2022/06/16 00:48:50;;;;;;;8.52;6.90;;;;;;;13.35;100.00;95411.84;5062768;28;20153;-74
2022/06/16 00:51:34;;;;;;;10.02;6.35;;;;;;;13.32;100.00;95413.09;5069353;28;20055;-74
2022/06/16 00:54:32;;;;;;;8.15;6.63;;;;;;;13.38;100.00;95406.16;5087732;27;20032;-74
2022/06/16 00:57:08;;;;;;;7.05;6.28;;;;;;;13.46;100.00;95403.13;5073193;28;20047;-74
2022/06/16 00:59:36;;;;;;;8.65;6.70;;;;;;;13.43;100.00;95403.59;5079160;28;20047;-74
2022/06/16 01:02:05;;;;;;;13.50;7.22;;;;;;;13.46;100.00;95403.13;5078856;28;20032;-74
2022/06/16 01:04:53;;;;;;;12.02;6.28;;;;;;;13.48;100.00;95411.53;5065384;28;20036;-74
2022/06/16 01:07:25;;;;;;;10.60;6.55;;;;;;;13.53;100.00;95393.31;5059719;28;20048;-74
2022/06/16 01:09:54;;;;;;;7.90;6.00;;;;;;;13.63;100.00;95402.38;5066658;28;20059;-74
2022/06/16 01:15:16;;;;;;;8.93;6.20;;;;;;;13.72;100.00;95391.28;5060663;28;20044;-74
2022/06/16 01:18:04;;;;;;;7.13;5.90;;;;;;;13.84;100.00;95390.44;5056864;28;20048;-74
2022/06/16 01:20:52;;;;;;;7.20;6.00;;;;;;;13.91;100.00;95389.22;5063433;28;20785;-74
2022/06/16 01:23:47;;;;;;;7.50;6.60;;;;;;;13.96;100.00;95397.16;5087712;27;20040;-74
2022/06/16 01:26:53;;;;;;;6.63;5.93;;;;;;;14.07;100.00;95386.88;5060059;28;20036;-74
2022/06/16 01:29:30;;;;;;;8.88;6.15;;;;;;;14.11;100.00;95393.19;5061531;28;20044;-74
2022/06/16 01:32:17;;;;;;;6.82;5.38;;;;;;;14.20;100.00;95385.75;5059180;28;20044;-74
2022/06/16 01:34:48;;;;;;;11.10;6.80;;;;;;;14.22;100.00;95379.22;5080316;28;20116;-74
2022/06/16 01:37:15;;;;;;;7.93;6.40;;;;;;;14.32;100.00;95379.38;5059397;28;20055;-74
2022/06/16 01:39:55;;;;;;;8.60;6.15;;;;;;;14.42;100.00;95380.53;5058978;28;20048;-74
2022/06/16 01:42:32;;;;;;;7.70;5.90;;;;;;;14.42;100.00;95364.81;5079595;28;20051;-74
2022/06/16 01:45:07;;;;;;;8.88;6.50;;;;;;;14.58;100.00;95382.34;5061752;28;20050;-74
2022/06/16 01:47:38;;;;;;;10.88;6.55;;;;;;;14.66;100.00;95379.34;5059038;28;20723;-74
2022/06/16 01:50:13;;;;;;;10.35;6.75;;;;;;;14.80;100.00;95374.53;5059943;28;20052;-74
2022/06/16 01:52:54;;;;;;;9.73;6.95;;;;;;;14.88;100.00;95386.41;5081630;28;20046;-74
2022/06/16 01:55:33;;;;;;;10.88;7.57;;;;;;;14.97;100.00;95371.84;5061819;28;20802;-74
2022/06/16 01:58:10;;;;;;;10.55;7.03;;;;;;;15.00;100.00;95384.47;5047880;28;20032;-74
2022/06/16 02:00:39;;;;;;;8.55;6.97;;;;;;;14.97;100.00;95363.97;5057883;28;20127;-74
2022/06/16 02:03:12;;;;;;;11.45;8.27;;;;;;;14.86;100.00;95336.03;5059288;28;20097;-74
2022/06/16 02:05:44;;;;;;;9.00;7.87;;;;;;;14.93;100.00;95362.06;5063277;28;20046;-74
2022/06/16 02:08:16;;;;;;;8.93;7.50;;;;;;;14.97;100.00;95369.22;5057724;28;20552;-74
2022/06/16 02:11:14;;;;;;;9.98;6.93;;;;;;;14.90;100.00;95368.59;5048790;28;20105;-74
2022/06/16 02:14:20;;;;;;;8.07;5.93;;;;;;;14.85;100.00;95377.19;5068317;28;20040;-74
2022/06/16 02:16:51;;;;;;;8.43;6.97;;;;;;;14.79;100.00;95374.78;5046726;28;20147;-74
2022/06/16 02:19:24;;;;;;;12.77;7.00;;;;;;;14.76;100.00;95378.66;5065771;28;20043;-74
2022/06/16 02:21:52;;;;;;;11.35;7.22;;;;;;;14.71;100.00;95374.16;5071826;28;20048;-74
2022/06/16 02:24:24;;;;;;;10.82;7.45;;;;;;;14.80;100.00;95373.72;5046095;28;20049;-74
2022/06/16 02:26:55;;;;;;;11.85;8.02;;;;;;;14.74;100.00;95390.44;5059062;28;20116;-74
2022/06/16 02:29:30;;;;;;;12.20;6.97;;;;;;;14.72;100.00;95383.59;5063556;28;20051;-74
2022/06/16 02:32:06;;;;;;;13.23;9.27;;;;;;;14.76;100.00;95388.34;5058563;28;20097;-74
2022/06/16 02:34:37;;;;;;;22.60;14.65;;;;;;;14.68;100.00;95385.13;5080396;28;20101;-74
2022/06/16 02:37:20;;;;;;;20.00;11.68;;;;;;;14.65;100.00;95385.59;5055654;28;20039;-74
2022/06/16 02:40:06;;;;;;;15.52;11.30;;;;;;;14.52;100.00;95393.78;5092363;28;20101;-74
2022/06/16 02:42:44;;;;;;;11.45;9.02;;;;;;;14.53;100.00;95395.38;5061883;28;20089;-74
2022/06/16 02:45:46;;;;;;;13.82;8.20;;;;;;;14.44;100.00;95402.06;5064739;28;20937;-74
2022/06/16 02:48:26;;;;;;;11.07;8.23;;;;;;;14.45;100.00;95398.41;5079649;28;20039;-74
2022/06/16 02:51:07;;;;;;;10.98;8.38;;;;;;;14.50;100.00;95401.09;5063326;28;20130;-74
2022/06/16 02:53:48;;;;;;;11.40;9.88;;;;;;;14.53;100.00;95400.59;5077946;28;20112;-74
2022/06/16 02:56:24;;;;;;;12.75;9.27;;;;;;;14.60;100.00;95406.50;5084138;28;20035;-74
2022/06/16 02:58:56;;;;;;;17.35;11.85;;;;;;;14.55;100.00;95393.31;5059107;28;20616;-74
2022/06/16 03:01:26;;;;;;;16.15;11.98;;;;;;;14.61;100.00;95397.63;5062324;28;20139;-75
2022/06/16 03:04:09;;;;;;;12.88;9.70;;;;;;;14.65;100.00;95393.47;5058670;28;20040;-74
2022/06/16 03:06:42;;;;;;;16.15;8.93;;;;;;;14.70;100.00;95404.03;5063019;28;20043;-74
2022/06/16 03:09:09;;;;;;;16.00;8.55;;;;;;;14.71;100.00;95403.00;5041688;28;20039;-74
2022/06/16 03:11:37;;;;;;;10.23;8.20;;;;;;;14.70;100.00;95400.63;5066139;28;20044;-75
2022/06/16 03:14:08;;;;;;;13.07;9.20;;;;;;;14.71;100.00;95412.66;5057679;28;20063;-74
2022/06/16 03:16:40;;;;;;;36.45;13.00;;;;;;;14.70;100.00;95396.16;5053911;28;20052;-75
2022/06/16 03:19:07;;;;;;;13.32;8.70;;;;;;;14.76;100.00;95390.97;5040543;28;20137;-72
2022/06/16 03:21:38;;;;;;;13.88;8.40;;;;;;;14.79;100.00;95398.38;5047090;28;20054;-73
2022/06/16 03:24:05;;;;;;;14.48;9.10;;;;;;;14.67;100.00;95386.16;5061493;28;20044;-73
2022/06/16 03:26:32;;;;;;;18.15;10.27;;;;;;;14.63;100.00;95385.06;5046539;28;20041;-73
2022/06/16 03:28:59;;;;;;;10.43;7.95;;;;;;;14.66;100.00;95379.34;5046733;28;20962;-73
2022/06/16 03:31:28;;;;;;;14.52;9.43;;;;;;;14.59;100.00;95381.34;5044127;28;20680;-73
2022/06/16 03:33:56;;;;;;;14.05;8.20;;;;;;;14.65;100.00;95395.31;5048051;28;20738;-73
2022/06/16 03:36:26;;;;;;;17.40;9.40;;;;;;;14.65;100.00;95398.72;5044647;28;20037;-73
2022/06/16 03:38:54;;;;;;;14.80;9.65;;;;;;;14.68;100.00;95403.47;5048172;28;20055;-73
2022/06/16 03:41:22;;;;;;;11.85;8.32;;;;;;;14.77;100.00;95410.94;5045812;28;20114;-73
2022/06/16 03:43:56;;;;;;;11.15;8.85;;;;;;;14.79;100.00;95408.84;5041180;28;20049;-73
2022/06/16 03:46:24;;;;;;;20.95;8.45;;;;;;;14.76;100.00;95409.34;5041152;28;20048;-73
2022/06/16 03:49:05;;;;;;;13.35;9.10;;;;;;;14.78;100.00;95407.25;5045278;28;20045;-72
2022/06/16 03:51:48;;;;;;;17.13;9.48;;;;;;;14.80;100.00;95410.44;5047946;28;20525;-73
2022/06/16 03:54:20;;;;;;;14.70;9.57;;;;;;;14.82;100.00;95408.34;5033854;28;20765;-73
2022/06/16 03:56:52;;;;;;;17.63;8.88;;;;;;;14.77;100.00;95396.00;5040191;28;20044;-73
2022/06/16 03:59:21;;;;;;;15.10;8.65;;;;;;;14.80;100.00;95410.44;5052384;28;20132;-75
2022/06/16 04:01:53;;;;;;;17.73;9.13;;;;;;;14.95;100.00;95408.00;5047663;28;20048;-75
2022/06/16 04:04:28;;;;;;;12.38;9.45;;;;;;;14.99;100.00;95403.84;5051490;28;20561;-75
2022/06/16 04:06:58;;;;;;;15.27;9.48;;;;;;;15.00;100.00;95400.22;5048020;28;20194;-75
2022/06/16 04:09:26;;;;;;;14.18;9.73;;;;;;;15.03;100.00;95404.94;5050717;28;20040;-76
2022/06/16 04:11:58;;;;;;;20.10;10.13;;;;;;;15.18;100.00;95416.66;5033612;28;20561;-75
2022/06/16 04:14:25;;;;;;;30.85;10.93;;;;;;;15.21;100.00;95400.44;5050577;28;20040;-73
2022/06/16 04:17:03;;;;;;;18.83;10.13;;;;;;;15.40;100.00;95414.81;5052265;28;20606;-73
2022/06/16 04:20:11;;;;;;;17.73;10.02;;;;;;;15.51;100.00;95405.22;5058149;28;20147;-73
2022/06/16 04:22:40;;;;;;;15.93;9.50;;;;;;;15.66;100.00;95412.44;5062137;28;20098;-73
2022/06/16 04:25:15;;;;;;;12.80;9.35;;;;;;;15.78;100.00;95405.22;5057858;28;20124;-73
2022/06/16 04:27:44;;;;;;;12.23;9.43;;;;;;;15.88;100.00;95409.75;5056322;28;20036;-73
2022/06/16 04:30:14;;;;;;;12.48;10.20;;;;;;;15.95;100.00;95404.31;5063409;28;20113;-73
2022/06/16 04:32:43;;;;;;;11.07;8.63;;;;;;;16.05;100.00;95410.44;5066566;28;20056;-73
2022/06/16 04:35:11;;;;;;;15.32;8.90;;;;;;;16.16;100.00;95408.69;5057436;28;20056;-73
2022/06/16 04:37:54;;;;;;;14.98;9.32;;;;;;;16.19;100.00;95405.56;5091014;27;20513;-73
2022/06/16 04:40:22;;;;;;;22.70;9.20;;;;;;;16.27;100.00;95406.13;5057645;28;20137;-73
2022/06/16 04:42:52;;;;;;;17.70;10.13;;;;;;;16.29;100.00;95404.03;5057605;28;20047;-73
2022/06/16 04:45:20;;;;;;;17.60;9.10;;;;;;;16.23;100.00;95401.38;5062642;28;20769;-73
2022/06/16 04:47:47;;;;;;;18.00;10.65;;;;;;;16.31;100.00;95413.25;5056042;28;20044;-73
2022/06/16 04:50:18;;;;;;;13.57;8.95;;;;;;;16.34;100.00;95415.38;5059364;28;20044;-73
2022/06/16 04:52:49;;;;;;;15.00;9.52;;;;;;;16.51;100.00;95406.53;5056937;28;20138;-73
2022/06/16 04:55:22;;;;;;;18.25;10.85;;;;;;;16.61;100.00;95412.66;5040265;28;20130;-73
2022/06/16 04:58:12;;;;;;;15.23;9.90;;;;;;;16.73;100.00;95414.31;5055625;28;20044;-74
2022/06/16 05:01:00;;;;;;;14.30;9.57;;;;;;;16.80;100.00;95420.16;5055963;28;20045;-74
2022/06/16 05:04:15;;;;;;;;;;;;;;;16.89;100.00;95418.63;5052807;28;20056;-74
2022/06/16 05:07:01;;;;;;;13.23;9.25;;;;;;;16.92;100.00;95410.22;5057374;28;20420;-74
2022/06/16 05:10:07;;;;;;;15.63;10.07;;;;;;;16.97;100.00;95406.81;5017385;28;20124;-74
2022/06/16 05:12:59;;;;;;;11.77;9.20;;;;;;;17.12;100.00;95413.97;5000167;28;20227;-74
2022/06/16 05:15:52;;;;;;;11.13;9.07;;;;;;;17.22;100.00;95408.75;5049584;28;20173;-74
2022/06/16 05:18:39;;;;;;;13.93;9.70;;;;;;;17.19;100.00;95402.16;5060233;28;20152;-74
2022/06/16 05:21:14;;;;;;;15.70;9.98;;;;;;;17.49;100.00;95405.94;5079939;28;20040;-74
2022/06/16 05:24:00;;;;;;;15.70;11.07;;;;;;;17.59;100.00;95410.41;5063189;28;20059;-74
2022/06/16 05:26:50;;;;;;;16.48;9.98;;;;;;;17.89;100.00;95414.19;5049289;28;20051;-74
2022/06/16 05:29:33;;;;;;;18.17;11.20;;;;;;;18.08;100.00;95415.25;5085144;27;20125;-73
2022/06/16 05:32:03;;;;;;;13.85;11.05;;;;;;;18.25;100.00;95411.56;5079184;28;20782;-74
2022/06/16 05:34:42;;;;;;;18.27;11.35;;;;;;;18.38;100.00;95399.69;5061681;28;20164;-74
2022/06/16 05:37:18;;;;;;;18.60;11.07;;;;;;;18.65;100.00;95409.91;5060813;28;20052;-74
2022/06/16 05:40:17;;;;;;;13.93;11.55;;;;;;;18.96;100.00;95417.78;5064979;28;20059;-74
2022/06/16 05:43:13;;;;;;;17.73;10.73;;;;;;;19.17;100.00;95411.34;5028243;28;20228;-74
2022/06/16 05:45:49;;;;;;;21.60;13.18;;;;;;;19.36;100.00;95413.41;5062886;28;20101;-74
2022/06/16 05:48:30;;;;;;;15.60;11.13;;;;;;;19.36;100.00;95402.84;5062768;28;20119;-73
2022/06/16 05:51:08;;;;;;;21.00;13.85;;;;;;;19.55;100.00;95416.97;5065318;28;20624;-73
2022/06/16 05:53:46;;;;;;;18.70;13.45;;;;;;;19.63;100.00;95412.97;5062060;28;20754;-73
2022/06/16 05:56:18;;;;;;;20.50;14.43;;;;;;;19.70;100.00;95408.19;5091545;27;20076;-73
2022/06/16 05:58:46;;;;;;;20.77;13.20;;;;;;;19.91;100.00;95424.69;5061455;28;20632;-73
2022/06/16 06:01:13;;;;;;;23.40;13.57;;;;;;;19.99;100.00;95418.84;5062167;28;20052;-74
2022/06/16 06:03:42;;;;;;;19.52;13.68;;;;;;;19.99;100.00;95394.28;5057904;28;20160;-73
2022/06/16 06:06:11;;;;;;;21.52;13.45;;;;;;;20.26;100.00;95417.56;5060684;28;20128;-75
2022/06/16 06:17:11;;;;;;;19.63;13.73;;;;;;;20.71;98.38;95410.31;5087463;27;20044;-75
2022/06/16 06:19:39;;;;;;;19.35;12.13;;;;;;;20.80;95.98;95419.19;5057911;28;20035;-75
2022/06/16 06:22:13;;;;;;;19.25;13.27;;;;;;;20.89;95.77;95423.91;5058340;28;20060;-74
2022/06/16 06:24:50;;;;;;;23.95;14.15;;;;;;;21.11;97.06;95421.50;5059692;28;20080;-75
2022/06/16 06:27:38;;;;;;;23.20;15.63;;;;;;;21.23;93.92;95425.59;5058743;28;20292;-77
2022/06/16 06:30:28;;;;;;;24.52;16.13;;;;;;;21.39;94.39;95429.63;5081802;28;20036;-78
2022/06/16 06:33:02;;;;;;;20.25;14.13;;;;;;;21.52;91.88;95428.97;5060073;28;20052;-74
2022/06/16 06:35:28;;;;;;;22.20;15.23;;;;;;;21.77;90.87;95429.72;5057792;28;20046;-72
2022/06/16 06:37:57;;;;;;;23.90;14.55;;;;;;;21.94;92.10;95429.97;5061457;28;20032;-67
2022/06/16 06:40:31;;;;;;;17.77;12.52;;;;;;;21.83;88.62;95425.91;5077327;28;20524;-72
2022/06/16 06:42:58;;;;;;;22.67;15.52;;;;;;;21.94;89.88;95407.97;5059362;28;20716;-71
2022/06/16 06:45:26;;;;;;;19.33;13.65;;;;;;;22.14;89.26;95433.38;5061055;28;20071;-69
2022/06/16 06:47:53;;;;;;;20.80;14.95;;;;;;;22.26;89.14;95431.09;5075224;28;20044;-67
2022/06/16 06:50:27;;;;;;;20.40;14.52;;;;;;;22.45;88.58;95424.94;5079172;28;21571;-65
2022/06/16 06:52:54;;;;;;;17.23;13.25;;;;;;;22.69;87.35;95441.53;5077514;28;20043;-67
2022/06/16 06:55:21;;;;;;;20.80;14.85;;;;;;;22.82;86.39;95436.53;5079422;28;20055;-68
2022/06/16 06:57:49;;;;;;;22.63;13.10;;;;;;;22.88;85.65;95430.81;5079380;28;20075;-67
2022/06/16 07:00:17;;;;;;;20.02;13.57;;;;;;;23.03;86.49;95427.09;5083892;28;20044;-67
2022/06/16 07:02:46;;;;;;;19.83;14.43;;;;;;;23.28;85.52;95435.66;5077730;28;20047;-68
2022/06/16 07:05:13;;;;;;;17.63;13.38;;;;;;;23.43;83.34;95435.34;5077685;28;20036;-67
2022/06/16 07:07:46;;;;;;;16.02;12.20;;;;;;;23.38;80.28;95443.44;5075052;28;20051;-67
2022/06/16 07:10:14;;;;;;;19.95;13.60;;;;;;;23.41;80.22;95432.22;5076892;28;20539;-67
2022/06/16 07:12:41;;;;;;;18.02;12.52;;;;;;;23.47;79.94;95436.31;5078871;28;20044;-67
2022/06/16 07:15:09;;;;;;;23.00;15.27;;;;;;;23.30;78.87;95425.53;5075954;28;20098;-68
2022/06/16 07:17:36;;;;;;;21.70;14.90;;;;;;;23.46;79.91;95408.19;5079548;28;20243;-67
2022/06/16 07:20:04;;;;;;;21.00;14.50;;;;;;;23.80;80.29;95428.19;5074290;28;20032;-66
2022/06/16 07:22:31;;;;;;;19.48;13.52;;;;;;;23.95;73.02;95428.94;5077640;28;20059;-68
2022/06/16 07:24:57;;;;;;;19.67;13.52;;;;;;;24.14;71.73;95426.88;5075696;28;20070;-69
2022/06/16 07:27:24;;;;;;;18.92;14.30;;;;;;;24.45;72.60;95426.13;5080450;28;20134;-77
2022/06/16 07:29:52;;;;;;;16.38;12.30;;;;;;;24.57;70.11;95429.06;5057861;28;20048;-76
2022/06/16 07:32:19;;;;;;;17.02;13.10;;;;;;;24.67;69.74;95421.91;5063485;28;20428;-77
2022/06/16 07:34:47;;;;;;;17.10;13.40;;;;;;;24.57;68.92;95431.72;5059164;28;20126;-79
2022/06/16 07:37:15;;;;;;;18.80;13.23;;;;;;;24.78;68.34;95428.56;5060163;28;20047;-76
2022/06/16 07:39:42;;;;;;;23.85;13.27;;;;;;;24.86;68.32;95427.78;5085335;28;20051;-77
2022/06/16 07:42:09;;;;;;;16.45;13.40;;;;;;;25.17;68.26;95429.63;5074604;28;20051;-77
2022/06/16 07:44:37;;;;;;;16.77;12.95;;;;;;;25.26;66.13;95433.13;5060869;28;20044;-76
2022/06/16 07:47:05;;;;;;;17.58;12.20;;;;;;;25.15;66.08;95437.13;5076479;28;20051;-77
2022/06/16 07:49:32;;;;;;;22.52;14.00;;;;;;;25.19;66.58;95427.41;5061541;28;20036;-77
2022/06/16 07:51:59;;;;;;;16.15;12.60;;;;;;;25.16;67.04;95423.50;5075570;28;20040;-77
2022/06/16 07:54:28;;;;;;;16.38;12.55;;;;;;;25.26;67.56;95427.78;5057757;28;20043;-77
2022/06/16 07:57:16;;;;;;;14.85;11.90;;;;;;;25.46;64.44;95430.97;5084136;28;20695;-77
2022/06/16 07:59:52;;;;;;;20.52;13.23;;;;;;;25.22;65.17;95421.47;5060062;28;20077;-77
2022/06/16 08:02:20;;;;;;;14.63;11.75;;;;;;;25.51;65.42;95422.81;5057144;28;20085;-77
2022/06/16 08:04:47;;;;;;;13.88;11.57;;;;;;;25.58;63.15;95428.47;5060753;28;20048;-77
2022/06/16 08:07:14;;;;;;;16.20;11.60;;;;;;;25.55;60.74;95418.44;5056452;28;20810;-77
2022/06/16 08:09:42;;;;;;;16.23;12.60;;;;;;;25.54;62.12;95430.22;5073873;28;20044;-76
2022/06/16 08:12:10;;;;;;;18.73;13.70;;;;;;;25.74;62.94;95426.91;5075680;28;20093;-77
2022/06/16 08:14:42;;;;;;;19.02;13.00;;;;;;;25.75;63.51;95427.72;5058356;28;20048;-76
2022/06/16 08:17:19;;;;;;;17.05;12.20;;;;;;;25.96;61.09;95433.22;5058359;28;20687;-77
2022/06/16 08:19:46;;;;;;;18.38;13.40;;;;;;;25.86;62.70;95436.22;5076819;28;20528;-77
2022/06/16 08:22:13;;;;;;;16.02;12.38;;;;;;;25.85;61.61;95431.97;5061916;28;20440;-76
2022/06/16 08:24:41;;;;;;;17.58;11.40;;;;;;;25.72;59.94;95426.44;5045795;28;20067;-76
2022/06/16 08:27:09;;;;;;;14.50;11.45;;;;;;;25.97;59.04;95434.81;5078745;28;20055;-76
2022/06/16 08:29:39;;;;;;;15.98;11.95;;;;;;;25.90;59.57;95435.25;5074250;28;20044;-78
2022/06/16 08:32:08;;;;;;;14.13;12.07;;;;;;;26.02;57.34;95433.84;5046662;28;20714;-77
2022/06/16 08:34:37;;;;;;;15.60;11.35;;;;;;;26.15;55.79;95434.81;5058871;28;20626;-77
2022/06/16 08:37:04;;;;;;;17.65;10.75;;;;;;;26.10;57.62;95433.06;5083465;28;20039;-77
2022/06/16 08:39:31;;;;;;;14.60;11.55;;;;;;;26.23;55.52;95431.34;5080101;28;20152;-77
2022/06/16 08:42:07;;;;;;;16.33;12.10;;;;;;;26.26;57.19;95441.38;5087814;28;20159;-77
2022/06/16 08:44:42;;;;;;;14.73;11.80;;;;;;;26.42;56.61;95423.78;5060196;28;20044;-78
2022/06/16 08:47:21;;;;;;;17.67;11.52;;;;;;;26.64;56.02;95430.03;5086112;28;20048;-77
2022/06/16 08:50:02;;;;;;;16.50;10.68;;;;;;;26.76;56.21;95427.47;5063656;28;20040;-77
2022/06/16 08:52:35;;;;;;;14.77;12.00;;;;;;;26.97;55.93;95432.09;5065593;28;20035;-77
2022/06/16 08:55:52;;;;;;;18.10;11.60;;;;;;;26.98;54.16;95420.31;5062120;28;20058;-77
2022/06/16 08:58:29;;;;;;;14.30;11.68;;;;;;;27.22;53.79;95415.16;4980203;28;20038;-77
2022/06/16 09:01:07;;;;;;;11.77;10.45;;;;;;;27.32;49.46;95426.63;5067561;28;20056;-77
2022/06/16 09:03:47;;;;;;;14.52;11.25;;;;;;;27.34;49.81;95429.78;5046546;28;20052;-77
2022/06/16 09:06:48;;;;;;;12.48;11.10;;;;;;;27.38;50.72;95422.66;5079060;28;20039;-77
2022/06/16 09:10:14;;;;;;;11.85;10.27;;;;;;;27.52;50.34;95409.81;5062940;28;20088;-77
2022/06/16 09:12:56;;;;;;;13.57;10.02;;;;;;;27.90;48.35;95425.00;5070901;28;20070;-76
2022/06/16 09:15:37;;;;;;;13.27;10.93;;;;;;;27.91;45.27;95421.22;5076843;28;20040;-73
2022/06/16 09:18:25;;;;;;;13.18;10.40;;;;;;;28.01;44.95;95418.13;5080242;28;20059;-76
2022/06/16 09:21:07;;;;;;;11.23;9.43;;;;;;;27.97;42.47;95413.78;5062307;28;20051;-76
2022/06/16 09:23:52;;;;;;;12.90;10.00;;;;;;;27.62;44.04;95414.00;5059448;28;20039;-77
2022/06/16 09:26:19;;;;;;;12.27;10.63;;;;;;;27.94;47.46;95411.75;5045392;28;20047;-76
2022/06/16 09:29:09;;;;;;;13.73;11.00;;;;;;;28.08;46.11;95411.47;5081834;28;20036;-76
2022/06/16 09:31:57;;;;;;;15.00;11.35;;;;;;;28.09;45.44;95410.34;5083033;28;20462;-76
2022/06/16 09:34:51;;;;;;;14.93;11.07;;;;;;;28.05;42.72;95401.41;5047484;28;20139;-76
2022/06/16 09:37:38;;;;;;;12.80;10.70;;;;;;;28.23;44.66;95389.41;5077926;28;20058;-73
2022/06/16 09:40:27;;;;;;;14.80;11.02;;;;;;;28.56;44.70;95402.06;5063760;28;20035;-74
2022/06/16 09:43:02;;;;;;;14.93;10.85;;;;;;;28.68;44.04;95404.72;5060182;28;20036;-76
2022/06/16 09:46:09;;;;;;;18.02;12.15;;;;;;;28.82;45.26;95387.56;5088794;27;20047;-75
2022/06/16 09:48:48;;;;;;;12.70;10.60;;;;;;;28.83;43.92;95381.06;5058190;28;20054;-76
2022/06/16 09:51:17;;;;;;;12.82;10.27;;;;;;;29.32;41.95;95383.78;5083042;28;20127;-75
2022/06/16 09:53:59;;;;;;;17.23;10.38;;;;;;;29.40;40.73;95388.22;5079125;28;20044;-75
2022/06/16 09:56:31;;;;;;;15.32;10.27;;;;;;;29.26;40.50;95390.47;5079552;28;20028;-75
2022/06/16 09:59:07;;;;;;;11.05;9.27;;;;;;;29.21;41.38;95388.81;5052649;28;20055;-76
2022/06/16 10:01:46;;;;;;;10.93;9.15;;;;;;;29.36;39.64;95390.00;5069865;28;20048;-76
2022/06/16 10:04:14;;;;;;;10.70;8.07;;;;;;;29.46;37.89;95373.47;5047072;28;20122;-74
2022/06/16 10:06:59;;;;;;;10.73;7.80;;;;;;;29.95;38.47;95387.88;5086561;28;20052;-74
2022/06/16 10:09:59;;;;;;;10.15;7.75;;;;;;;30.16;34.14;95393.84;5063303;28;21512;-75
2022/06/16 10:12:53;;;;;;;9.20;7.95;;;;;;;30.49;35.24;95390.09;4992395;28;20145;-75
2022/06/16 10:15:20;;;;;;;;;;;;;;;30.63;35.78;95385.09;5009731;28;20044;-75
2022/06/16 10:17:47;;;;;;;10.52;9.13;;;;;;;30.57;35.33;95370.31;5050478;28;19925;-75
2022/06/16 10:20:19;;;;;;;13.00;9.55;;;;;;;30.54;36.10;95381.78;5046093;28;20048;-75
2022/06/16 10:23:02;;;;;;;9.30;8.02;;;;;;;29.87;34.78;95382.31;5048858;28;20040;-76
2022/06/16 10:25:46;;;;;;;12.18;9.70;;;;;;;29.21;37.03;95363.88;5051716;28;20033;-77
2022/06/16 10:28:45;;;;;;;12.88;9.00;;;;;;;29.41;36.72;95376.38;5053940;28;20592;-76
2022/06/16 10:31:33;;;;;;;11.38;8.52;;;;;;;30.06;35.03;95378.22;5022662;28;20713;-76
2022/06/16 10:34:01;;;;;;;9.35;7.63;;;;;;;30.64;36.76;95373.19;5050071;28;20105;-75
2022/06/16 10:36:30;;;;;;;10.65;7.78;;;;;;;31.00;34.88;95366.00;5044385;28;20389;-74
2022/06/16 10:39:15;;;;;;;8.57;7.53;;;;;;;31.09;34.31;95378.50;5041600;28;20047;-75
2022/06/16 10:42:04;;;;;;;13.00;9.02;;;;;;;31.35;33.82;95378.72;5033938;28;20045;-74
2022/06/16 10:44:32;;;;;;;9.63;8.23;;;;;;;31.63;33.42;95375.84;5050774;28;20536;-73
2022/06/16 10:47:04;;;;;;;10.63;7.80;;;;;;;31.70;29.41;95353.69;5043223;28;20045;-75
2022/06/16 10:49:35;;;;;;;10.75;8.00;;;;;;;31.68;31.79;95372.09;5032540;28;20059;-74
2022/06/16 10:52:14;;;;;;;10.10;7.80;;;;;;;31.88;29.54;95361.34;5050551;28;20041;-74
2022/06/16 10:55:01;;;;;;;9.10;7.85;;;;;;;31.78;30.14;95366.16;5053750;28;20041;-75
2022/06/16 10:57:40;;;;;;;9.70;7.95;;;;;;;31.91;31.30;95363.31;5040145;28;20806;-75
2022/06/16 11:00:25;;;;;;;8.25;6.70;;;;;;;32.16;30.47;95364.59;5046943;28;20136;-74
2022/06/16 11:03:01;;;;;;;9.75;8.02;;;;;;;32.30;31.32;95363.28;5043015;28;20043;-75
2022/06/16 11:05:31;;;;;;;12.45;7.10;;;;;;;32.61;30.48;95372.31;5063979;28;20060;-75
2022/06/16 11:08:13;;;;;;;10.73;7.30;;;;;;;33.04;28.11;95362.22;5048128;28;20049;-75
2022/06/16 11:11:01;;;;;;;10.25;7.32;;;;;;;33.27;28.08;95365.66;5046913;28;20056;-77
2022/06/16 11:13:34;;;;;;;10.00;7.40;;;;;;;33.05;28.29;95358.38;5051016;28;20043;-75
2022/06/16 11:16:24;;;;;;;8.23;6.78;;;;;;;32.57;27.53;95361.44;5051010;28;20043;-77
2022/06/16 11:18:56;;;;;;;9.40;7.53;;;;;;;32.86;27.66;95357.34;5061742;28;20051;-67
2022/06/16 11:21:28;;;;;;;8.07;6.78;;;;;;;33.17;29.29;95355.50;5078360;28;20130;-68
2022/06/16 11:24:02;;;;;;;8.93;6.60;;;;;;;33.57;28.67;95354.09;5077948;28;20064;-68
2022/06/16 11:26:34;;;;;;;9.80;6.32;;;;;;;33.60;26.15;95356.06;5060155;28;20056;-68
2022/06/16 11:29:21;;;;;;;8.48;6.72;;;;;;;33.62;26.12;95352.97;5078273;28;20042;-66
2022/06/16 11:32:03;;;;;;;8.40;6.50;;;;;;;33.69;26.32;95353.91;5077170;28;20114;-65
2022/06/16 11:34:30;;;;;;;7.75;6.38;;;;;;;33.27;26.53;95338.66;5061192;28;20755;-66
2022/06/16 11:37:09;;;;;;;8.02;6.70;;;;;;;33.12;25.42;95345.00;5060256;28;20032;-66
2022/06/16 11:40:02;;;;;;;9.48;7.35;;;;;;;32.93;27.95;95341.22;5079205;28;20097;-66
2022/06/16 11:42:58;;;;;;;8.57;6.82;;;;;;;32.67;26.87;95350.09;5080467;28;20044;-66
2022/06/16 11:45:43;;;;;;;9.05;6.82;;;;;;;32.79;27.16;95349.13;5061631;28;20055;-66
2022/06/16 11:48:37;;;;;;;6.72;5.72;;;;;;;33.54;25.55;95341.31;5063512;28;20028;-66
2022/06/16 11:51:26;;;;;;;9.23;5.25;;;;;;;33.61;24.27;95336.00;5076921;28;20044;-68
2022/06/16 11:54:06;;;;;;;10.43;6.40;;;;;;;33.63;27.27;95341.81;5060746;28;20097;-69
2022/06/16 11:56:53;;;;;;;6.70;5.40;;;;;;;33.95;25.01;95351.47;5073801;28;20043;-68
2022/06/16 11:59:34;;;;;;;8.80;5.47;;;;;;;34.57;24.43;95353.66;5080122;28;20736;-68
2022/06/16 12:02:22;;;;;;;6.93;5.82;;;;;;;34.28;21.70;95350.69;5077142;28;20051;-68
2022/06/16 12:05:07;;;;;;;9.07;6.40;;;;;;;34.55;23.83;95342.44;5078767;28;20048;-68
2022/06/16 12:08:11;;;;;;;8.00;5.97;;;;;;;35.12;23.93;95347.53;5074166;28;20043;-70
2022/06/16 12:10:47;;;;;;;6.85;6.07;;;;;;;35.28;24.30;95333.72;5077921;28;20043;-69
2022/06/16 12:13:35;;;;;;;6.55;5.82;;;;;;;35.85;23.01;95333.97;5085094;28;20040;-76